createdAt,value
2022-08-12T00:02:03.127Z,37.34
2022-08-12T00:04:52.452Z,37.35
2022-08-12T00:07:38.233Z,37.34
2022-08-12T00:10:23.497Z,37.66
2022-08-12T00:13:08.977Z,37.72
2022-08-12T00:15:54.664Z,37.79
2022-08-12T00:18:39.613Z,37.59
2022-08-12T00:21:25.083Z,38.00
2022-08-12T00:24:12.874Z,38.11
2022-08-12T00:27:00.885Z,38.32
2022-08-12T00:29:48.177Z,38.43
2022-08-12T00:32:35.524Z,38.73
2022-08-12T00:35:32.105Z,38.72
2022-08-12T00:38:22.705Z,38.77
2022-08-12T00:41:07.484Z,38.21
2022-08-12T00:43:35.854Z,38.97
2022-08-12T00:46:21.830Z,39.26
2022-08-12T00:48:49.501Z,39.36
2022-08-12T00:51:16.868Z,39.40
2022-08-12T00:53:43.621Z,39.75
2022-08-12T00:56:10.608Z,39.89
2022-08-12T00:58:43.834Z,40.38
2022-08-12T01:01:10.442Z,40.63
2022-08-12T01:03:57.619Z,40.78
2022-08-12T01:06:46.321Z,40.95
2022-08-12T01:09:38.129Z,41.47
2022-08-12T01:12:06.484Z,41.64
2022-08-12T01:14:33.745Z,41.71
2022-08-12T01:17:00.426Z,41.97
2022-08-12T01:19:27.248Z,41.65
2022-08-12T01:22:12.658Z,41.72
2022-08-12T01:25:24.088Z,41.89
2022-08-12T01:27:53.062Z,42.41
2022-08-12T01:30:20.086Z,42.45
2022-08-12T01:32:49.906Z,42.57
2022-08-12T01:35:17.676Z,42.56
2022-08-12T01:38:06.042Z,42.56
2022-08-12T01:40:37.662Z,42.76
2022-08-12T01:43:10.658Z,42.70
2022-08-12T01:45:47.260Z,42.88
2022-08-12T01:48:36.310Z,42.94
2022-08-12T01:52:15.894Z,43.05
2022-08-12T01:54:18.223Z,43.26
2022-08-12T01:56:50.389Z,43.55
2022-08-12T01:59:45.768Z,43.73
2022-08-12T02:02:19.136Z,43.94
2022-08-12T02:05:28.684Z,43.44
2022-08-12T02:08:36.593Z,43.77
2022-08-12T02:11:23.326Z,43.79
2022-08-12T02:14:23.829Z,43.98
2022-08-12T02:16:56.582Z,44.22
2022-08-12T02:19:35.377Z,44.48
2022-08-12T02:22:31.272Z,44.24
2022-08-12T02:25:16.307Z,45.21
2022-08-12T02:27:48.425Z,46.59
2022-08-12T02:30:21.972Z,46.85
2022-08-12T02:32:51.085Z,47.00
2022-08-12T02:35:24.395Z,46.97
2022-08-12T02:37:53.784Z,47.06
2022-08-12T02:40:22.462Z,47.11
2022-08-12T02:43:15.691Z,46.98
2022-08-12T02:45:47.897Z,47.25
2022-08-12T02:48:21.820Z,47.99
2022-08-12T02:50:52.560Z,48.69
2022-08-12T02:53:19.874Z,49.77
2022-08-12T02:55:46.825Z,51.37
2022-08-12T02:58:14.863Z,53.36
2022-08-12T03:00:43.467Z,53.54
2022-08-12T03:03:13.701Z,53.46
2022-08-12T03:05:52.569Z,52.77
2022-08-12T03:08:32.214Z,53.16
2022-08-12T03:11:14.136Z,53.09
2022-08-12T03:13:45.775Z,52.47
2022-08-12T03:16:13.875Z,52.19
2022-08-12T03:18:45.829Z,52.38
2022-08-12T03:21:16.795Z,52.85
2022-08-12T03:23:45.091Z,52.95
2022-08-12T03:26:12.215Z,52.88
2022-08-12T03:28:50.810Z,52.90
2022-08-12T03:31:33.602Z,52.90
2022-08-12T03:34:11.254Z,53.09
2022-08-12T03:36:40.315Z,53.36
2022-08-12T03:39:35.211Z,53.40
2022-08-12T03:42:22.038Z,53.09
2022-08-12T03:45:16.695Z,53.57
2022-08-12T03:48:19.099Z,53.34
2022-08-12T03:51:06.291Z,53.24
2022-08-12T03:53:52.013Z,53.34
2022-08-12T03:56:37.920Z,53.12
2022-08-12T03:59:24.456Z,53.25
2022-08-12T04:01:58.159Z,53.12
2022-08-12T04:04:28.590Z,53.33
2022-08-12T04:06:56.062Z,53.61
2022-08-12T04:09:23.128Z,53.72
2022-08-12T04:12:08.688Z,54.08
2022-08-12T04:14:35.574Z,54.16
2022-08-12T04:17:03.754Z,54.21
2022-08-12T04:19:30.969Z,54.29
2022-08-12T04:22:01.766Z,54.56
2022-08-12T04:24:36.717Z,54.89
2022-08-12T04:27:08.241Z,54.87
2022-08-12T04:30:20.975Z,54.96
2022-08-12T04:32:22.219Z,55.27
2022-08-12T04:34:49.887Z,55.46
2022-08-12T04:37:16.683Z,55.83
2022-08-12T04:39:45.905Z,55.78
2022-08-12T04:42:13.036Z,55.68
2022-08-12T04:44:40.378Z,55.57
2022-08-12T04:47:11.037Z,55.33
2022-08-12T04:49:39.469Z,55.48
2022-08-12T04:52:06.207Z,55.83
2022-08-12T04:54:34.071Z,55.82
2022-08-12T04:57:04.604Z,55.97
2022-08-12T04:59:48.014Z,56.11
2022-08-12T05:02:21.676Z,55.86
2022-08-12T05:04:51.634Z,55.88
2022-08-12T05:07:19.312Z,55.71
2022-08-12T05:09:58.855Z,55.82
2022-08-12T05:12:34.219Z,56.04
2022-08-12T05:15:01.069Z,56.29
2022-08-12T05:17:28.512Z,56.29
2022-08-12T05:19:57.466Z,56.11
2022-08-12T05:22:26.814Z,56.11
2022-08-12T05:24:54.062Z,55.99
2022-08-12T05:27:22.640Z,55.93
2022-08-12T05:30:07.422Z,55.75
2022-08-12T05:32:36.763Z,56.01
2022-08-12T05:35:06.646Z,55.28
2022-08-12T05:37:34.910Z,55.00
2022-08-12T05:40:08.284Z,53.95
2022-08-12T05:42:37.337Z,53.38
2022-08-12T05:45:04.487Z,52.57
2022-08-12T05:47:44.846Z,51.00
2022-08-12T05:50:18.047Z,50.45
2022-08-12T05:52:45.639Z,49.67
2022-08-12T05:55:14.720Z,49.01
2022-08-12T05:57:41.321Z,47.22
2022-08-12T06:00:08.377Z,46.55
2022-08-12T06:02:38.230Z,44.55
2022-08-12T06:05:10.532Z,45.93
2022-08-12T06:08:01.185Z,44.27
2022-08-12T06:10:31.642Z,44.41
2022-08-12T06:13:09.258Z,45.00
2022-08-12T06:15:39.825Z,42.04
2022-08-12T06:18:14.096Z,42.22
2022-08-12T06:20:43.360Z,42.32
2022-08-12T06:23:11.881Z,41.99
2022-08-12T06:25:38.922Z,43.43
2022-08-12T06:28:17.616Z,42.65
2022-08-12T06:30:53.089Z,42.05
2022-08-12T06:34:00.709Z,41.91
2022-08-12T06:36:21.131Z,41.75
2022-08-12T06:38:49.296Z,41.64
2022-08-12T06:41:35.017Z,41.04
2022-08-12T06:44:07.015Z,40.68
2022-08-12T06:46:36.776Z,41.00
2022-08-12T06:49:03.987Z,40.76
2022-08-12T06:51:32.199Z,40.33
2022-08-12T06:54:00.587Z,40.20
2022-08-12T06:56:59.627Z,40.13
2022-08-12T06:59:15.734Z,39.75
2022-08-12T07:01:50.750Z,39.61
2022-08-12T07:04:36.726Z,39.13
2022-08-12T07:07:09.458Z,39.37
2022-08-12T07:10:04.130Z,38.97
2022-08-12T07:12:27.843Z,38.79
2022-08-12T07:14:58.836Z,38.43
2022-08-12T07:17:35.829Z,38.58
2022-08-12T07:20:35.962Z,38.60
2022-08-12T07:23:00.592Z,38.60
2022-08-12T07:25:37.546Z,38.30
2022-08-12T07:28:24.758Z,37.89
2022-08-12T07:30:53.215Z,37.25
2022-08-12T07:33:25.081Z,36.94
2022-08-12T07:35:53.923Z,36.35
2022-08-12T07:38:34.092Z,36.53
2022-08-12T07:41:03.284Z,36.50
2022-08-12T07:43:30.976Z,35.76
2022-08-12T07:45:58.136Z,35.74
2022-08-12T07:48:24.944Z,35.71
2022-08-12T07:50:52.872Z,36.00
2022-08-12T07:53:20.800Z,34.87
2022-08-12T07:55:47.795Z,34.28
2022-08-12T07:58:14.387Z,34.62
2022-08-12T08:00:41.011Z,34.18
2022-08-12T08:03:08.834Z,34.42
2022-08-12T08:05:45.818Z,33.99
2022-08-12T08:08:21.681Z,33.99
2022-08-12T08:10:50.661Z,34.17
2022-08-12T08:13:18.245Z,33.95
2022-08-12T08:16:02.307Z,33.23
2022-08-12T08:18:31.298Z,32.99
2022-08-12T08:20:57.841Z,33.52
2022-08-12T08:23:55.826Z,32.78
2022-08-12T08:26:24.815Z,32.19
2022-08-12T08:28:51.419Z,32.13
2022-08-12T08:31:18.667Z,31.90
2022-08-12T08:34:08.935Z,30.60
2022-08-12T08:36:31.763Z,30.49
2022-08-12T08:38:58.886Z,30.48
2022-08-12T08:42:15.751Z,30.30
2022-08-12T08:44:33.497Z,30.23
2022-08-12T08:47:01.299Z,29.84
2022-08-12T08:49:27.878Z,30.30
2022-08-12T08:51:54.419Z,29.84
2022-08-12T08:54:20.979Z,30.42
2022-08-12T08:56:50.414Z,30.32
2022-08-12T08:59:19.257Z,30.22
2022-08-12T09:01:47.462Z,29.11
2022-08-12T09:05:07.035Z,29.55
2022-08-12T09:07:14.956Z,29.66
2022-08-12T09:10:02.419Z,29.30
2022-08-12T09:12:54.210Z,29.24
2022-08-12T09:15:23.353Z,28.54
2022-08-12T09:20:52.261Z,27.05
2022-08-12T09:23:58.431Z,27.03
2022-08-12T09:26:09.465Z,27.47
2022-08-12T09:28:37.125Z,28.15
2022-08-12T09:32:06.990Z,27.43
2022-08-12T09:34:28.856Z,26.50
2022-08-12T09:36:58.041Z,26.55
2022-08-12T09:40:04.394Z,26.68
2022-08-12T09:42:43.968Z,27.23
2022-08-12T09:45:24.560Z,26.15
2022-08-12T09:48:09.709Z,25.27
2022-08-12T09:50:36.562Z,24.93
2022-08-12T09:53:14.998Z,25.37
2022-08-12T09:56:05.482Z,25.34
2022-08-12T09:58:58.113Z,25.74
2022-08-12T10:01:24.500Z,25.33
2022-08-12T10:04:03.312Z,25.49
2022-08-12T10:06:32.491Z,25.68
2022-08-12T10:09:08.442Z,25.08
2022-08-12T10:12:12.314Z,25.01
2022-08-12T10:14:52.316Z,25.16
2022-08-12T10:17:22.812Z,24.84
2022-08-12T10:19:52.928Z,25.43
2022-08-12T10:22:36.810Z,25.17
2022-08-12T10:25:25.090Z,25.12
2022-08-12T10:28:30.016Z,25.02
2022-08-12T10:30:58.910Z,24.60
2022-08-12T10:33:30.809Z,24.86
2022-08-12T10:35:59.716Z,24.29
2022-08-12T10:38:36.088Z,23.74
2022-08-12T10:41:57.775Z,24.26
2022-08-12T10:44:17.289Z,24.65
2022-08-12T10:46:49.264Z,24.72
2022-08-12T10:50:05.641Z,24.49
2022-08-12T10:52:34.449Z,24.93
2022-08-12T10:54:55.897Z,24.67
2022-08-12T10:58:15.559Z,24.72
2022-08-12T11:00:34.207Z,25.03
2022-08-12T11:04:28.595Z,25.24
2022-08-12T11:07:07.181Z,24.96
2022-08-12T11:08:43.713Z,24.81
2022-08-12T11:11:17.586Z,24.89
2022-08-12T11:13:48.865Z,24.76
2022-08-12T11:16:21.864Z,24.38
2022-08-12T11:18:54.621Z,24.02
2022-08-12T11:21:22.301Z,24.14
2022-08-12T11:23:53.688Z,24.36
2022-08-12T11:26:21.541Z,24.10
2022-08-12T11:28:59.272Z,23.99
2022-08-12T11:31:41.045Z,24.21
2022-08-12T11:34:51.611Z,24.35
2022-08-12T11:37:07.302Z,24.25
2022-08-12T11:42:37.409Z,23.96
2022-08-12T11:45:12.895Z,24.27
2022-08-12T11:47:43.356Z,24.10
2022-08-12T11:50:11.730Z,24.21
2022-08-12T11:52:56.422Z,23.99
2022-08-12T11:55:33.043Z,24.73
2022-08-12T11:58:38.327Z,24.13
2022-08-12T12:03:43.807Z,24.04
2022-08-12T12:06:17.273Z,23.99
2022-08-12T12:08:52.875Z,23.88
2022-08-12T12:11:20.685Z,24.24
2022-08-12T12:14:08.891Z,24.24
2022-08-12T12:16:39.794Z,23.30
2022-08-12T12:19:08.745Z,24.03
2022-08-12T12:21:46.929Z,23.74
2022-08-12T12:24:22.011Z,23.46
2022-08-12T12:27:00.951Z,22.74
2022-08-12T12:30:20.042Z,22.73
2022-08-12T12:32:16.173Z,22.85
2022-08-12T12:35:14.003Z,22.79
2022-08-12T12:38:04.590Z,22.56
2022-08-12T12:40:16.209Z,22.51
2022-08-12T12:42:55.251Z,22.77
2022-08-12T12:45:26.152Z,21.77
2022-08-12T12:48:02.924Z,22.39
2022-08-12T12:50:45.393Z,22.06
2022-08-12T12:54:05.846Z,21.81
2022-08-12T12:56:15.606Z,21.69
2022-08-12T12:58:43.502Z,22.73
2022-08-12T13:01:25.548Z,22.68
2022-08-12T13:03:56.401Z,21.63
2022-08-12T13:06:32.402Z,21.46
2022-08-12T13:09:03.017Z,20.99
2022-08-12T13:11:41.635Z,21.56
2022-08-12T13:14:29.149Z,21.33
2022-08-12T13:17:00.984Z,21.30
2022-08-12T13:19:38.888Z,21.58
2022-08-12T13:22:18.193Z,20.74
2022-08-12T13:24:45.369Z,21.22
2022-08-12T13:27:11.917Z,21.27
2022-08-12T13:29:39.313Z,21.78
2022-08-12T13:32:18.728Z,20.81
2022-08-12T13:34:53.309Z,20.88
2022-08-12T13:37:43.915Z,21.21
2022-08-12T13:40:18.467Z,21.31
2022-08-12T13:42:50.976Z,21.15
2022-08-12T13:45:17.707Z,21.27
2022-08-12T13:47:55.439Z,20.92
2022-08-12T13:50:29.789Z,21.55
2022-08-12T13:52:56.733Z,21.91
2022-08-12T13:55:30.982Z,22.31
2022-08-12T13:58:00.075Z,21.97
2022-08-12T14:00:37.983Z,22.45
2022-08-12T14:03:06.196Z,21.97
2022-08-12T14:05:39.047Z,21.05
2022-08-12T14:08:08.530Z,20.47
2022-08-12T14:10:38.184Z,20.73
2022-08-12T14:14:03.486Z,19.61
2022-08-12T14:16:11.001Z,20.69
2022-08-12T14:18:44.762Z,20.85
2022-08-12T14:21:18.250Z,20.95
2022-08-12T14:24:02.037Z,20.88
2022-08-12T14:26:32.444Z,20.96
2022-08-12T14:29:02.441Z,21.03
2022-08-12T14:31:31.917Z,21.28
2022-08-12T14:33:59.792Z,21.01
2022-08-12T14:36:26.726Z,20.66
2022-08-12T14:38:55.041Z,21.24
2022-08-12T14:41:37.204Z,20.55
2022-08-12T14:44:57.880Z,20.80
2022-08-12T14:46:59.456Z,20.65
2022-08-12T14:50:01.023Z,21.11
2022-08-12T14:53:13.595Z,20.30
2022-08-12T14:57:57.195Z,20.61
2022-08-12T15:00:50.694Z,20.92
2022-08-12T15:03:23.176Z,20.56
2022-08-12T15:06:05.564Z,20.52
2022-08-12T15:08:36.737Z,20.66
2022-08-12T15:11:06.319Z,21.38
2022-08-12T15:13:39.785Z,21.01
2022-08-12T15:16:08.465Z,20.34
2022-08-12T15:18:36.789Z,20.57
2022-08-12T15:21:11.085Z,21.19
2022-08-12T15:23:45.808Z,20.34
2022-08-12T15:26:28.373Z,20.35
2022-08-12T15:28:56.508Z,19.96
2022-08-12T15:31:27.707Z,20.53
2022-08-12T15:33:55.156Z,20.81
2022-08-12T15:36:54.143Z,21.05
2022-08-12T15:39:17.109Z,21.13
2022-08-12T15:41:50.334Z,20.72
2022-08-12T15:44:38.692Z,21.37
2022-08-12T15:47:04.633Z,21.12
2022-08-12T15:49:43.005Z,21.36
2022-08-12T15:52:27.397Z,21.46
2022-08-12T15:54:58.769Z,22.26
2022-08-12T15:57:33.495Z,21.83
2022-08-12T16:00:07.328Z,22.05
2022-08-12T16:02:50.365Z,21.67
2022-08-12T16:06:11.810Z,21.56
2022-08-12T16:08:17.133Z,21.90
2022-08-12T16:10:45.413Z,22.31
2022-08-12T16:13:18.132Z,21.55
2022-08-12T16:16:02.510Z,21.97
2022-08-12T16:18:33.246Z,21.54
2022-08-12T16:21:00.538Z,21.85
2022-08-12T16:23:52.130Z,22.32
2022-08-12T16:26:19.956Z,22.72
2022-08-12T16:28:47.921Z,22.79
2022-08-12T16:31:23.495Z,24.11
2022-08-12T16:33:59.666Z,24.31
2022-08-12T16:36:29.175Z,22.58
2022-08-12T16:38:55.902Z,22.56
2022-08-12T16:41:23.063Z,22.46
2022-08-12T16:43:50.430Z,22.64
2022-08-12T16:46:32.740Z,22.66
2022-08-12T16:49:08.547Z,22.26
2022-08-12T16:51:37.558Z,22.15
2022-08-12T16:54:12.754Z,22.21
2022-08-12T16:56:54.735Z,22.26
2022-08-12T16:59:26.275Z,22.50
2022-08-12T17:01:57.995Z,22.41
2022-08-12T17:04:25.370Z,22.37
2022-08-12T17:06:52.499Z,22.24
2022-08-12T17:09:19.441Z,22.72
2022-08-12T17:11:49.122Z,22.54
2022-08-12T17:14:23.033Z,22.34
2022-08-12T17:16:51.825Z,22.35
2022-08-12T17:19:20.260Z,22.61
2022-08-12T17:22:08.886Z,22.26
2022-08-12T17:24:39.979Z,22.15
2022-08-12T17:27:16.345Z,21.87
2022-08-12T17:30:02.882Z,22.45
2022-08-12T17:32:33.474Z,22.22
2022-08-12T17:35:18.942Z,22.67
2022-08-12T17:37:48.465Z,22.77
2022-08-12T17:40:34.887Z,22.83
2022-08-12T17:43:56.784Z,23.00
2022-08-12T17:45:56.122Z,22.79
2022-08-12T17:48:35.180Z,23.03
2022-08-12T17:51:15.596Z,22.16
2022-08-12T17:54:10.543Z,22.28
2022-08-12T17:56:37.111Z,23.01
2022-08-12T17:59:07.707Z,22.70
2022-08-12T18:01:35.835Z,22.59
2022-08-12T18:04:20.308Z,22.80
2022-08-12T18:06:49.224Z,22.96
2022-08-12T18:09:18.136Z,23.17
2022-08-12T18:12:07.905Z,22.58
2022-08-12T18:14:37.306Z,23.09
2022-08-12T18:17:08.914Z,22.79
2022-08-12T18:20:04.953Z,23.07
2022-08-12T18:22:30.638Z,22.71
2022-08-12T18:25:04.969Z,23.02
2022-08-12T18:27:44.796Z,23.16
2022-08-12T18:30:20.303Z,23.76
2022-08-12T18:33:03.454Z,23.21
2022-08-12T18:35:47.691Z,23.28
2022-08-12T18:38:19.225Z,23.59
2022-08-12T18:41:07.333Z,23.75
2022-08-12T18:43:59.281Z,23.34
2022-08-12T18:46:32.054Z,23.52
2022-08-12T18:49:17.261Z,24.24
2022-08-12T18:52:02.458Z,23.90
2022-08-12T18:54:35.666Z,23.92
2022-08-12T18:57:16.281Z,24.06
2022-08-12T19:00:01.237Z,24.32
2022-08-12T19:02:33.013Z,24.05
2022-08-12T19:05:08.688Z,24.36
2022-08-12T19:07:58.134Z,24.78
2022-08-12T19:10:27.416Z,24.42
2022-08-12T19:13:21.239Z,24.68
2022-08-12T19:15:53.436Z,24.85
2022-08-12T19:18:22.104Z,24.85
2022-08-12T19:20:50.404Z,25.09
2022-08-12T19:23:21.135Z,24.96
2022-08-12T19:25:55.398Z,25.04
2022-08-12T19:28:35.556Z,25.79
2022-08-12T19:31:55.571Z,25.36
2022-08-12T19:37:38.776Z,25.83
2022-08-12T19:40:20.270Z,25.94
2022-08-12T19:43:00.900Z,26.26
2022-08-12T19:45:43.220Z,26.27
2022-08-12T19:48:17.868Z,26.70
2022-08-12T19:50:50.560Z,26.60
2022-08-12T19:53:22.935Z,26.85
2022-08-12T19:55:53.487Z,27.25
2022-08-12T19:58:21.160Z,27.24
2022-08-12T20:00:52.533Z,27.21
2022-08-12T20:03:39.906Z,27.43
2022-08-12T20:06:13.635Z,27.79
2022-08-12T20:08:48.793Z,27.42
2022-08-12T20:12:14.577Z,27.61
2022-08-12T20:14:04.047Z,27.91
2022-08-12T20:16:51.926Z,28.03
2022-08-12T20:19:24.906Z,27.99
2022-08-12T20:22:14.565Z,28.01
2022-08-12T20:24:42.493Z,28.52
2022-08-12T20:27:29.248Z,28.36
2022-08-12T20:30:00.781Z,28.40
2022-08-12T20:32:29.637Z,28.66
2022-08-12T20:35:10.230Z,29.01
2022-08-12T20:38:07.696Z,28.78
2022-08-12T20:40:24.254Z,28.79
2022-08-12T20:42:53.534Z,28.92
2022-08-12T20:45:22.062Z,29.35
2022-08-12T20:48:02.034Z,29.41
2022-08-12T20:50:31.133Z,29.58
2022-08-12T20:53:00.774Z,29.78
2022-08-12T20:55:42.530Z,29.83
2022-08-12T20:58:09.735Z,29.89
2022-08-12T21:00:36.342Z,30.17
2022-08-12T21:03:23.801Z,30.25
2022-08-12T21:06:12.706Z,30.36
2022-08-12T21:08:41.641Z,30.42
2022-08-12T21:11:10.226Z,30.54
2022-08-12T21:13:41.946Z,30.60
2022-08-12T21:16:10.167Z,30.65
2022-08-12T21:18:37.541Z,30.69
2022-08-12T21:21:06.470Z,30.66
2022-08-12T21:23:37.408Z,30.69
2022-08-12T21:26:16.281Z,30.68
2022-08-12T21:28:58.471Z,30.69
2022-08-12T21:32:37.809Z,30.96
2022-08-12T21:34:19.281Z,30.94
2022-08-12T21:36:49.576Z,30.79
2022-08-12T21:39:30.512Z,31.04
2022-08-12T21:42:07.003Z,31.11
2022-08-12T21:45:47.638Z,31.28
2022-08-12T21:47:23.531Z,31.06
2022-08-12T21:50:06.626Z,31.11
2022-08-12T21:52:37.005Z,31.21
2022-08-12T21:55:17.991Z,31.29
2022-08-12T21:57:53.136Z,31.45
2022-08-12T22:00:31.751Z,31.38
2022-08-12T22:04:03.666Z,31.33
2022-08-12T22:06:31.463Z,31.40
2022-08-12T22:09:17.152Z,31.49
2022-08-12T22:11:56.253Z,31.58
2022-08-12T22:14:24.227Z,31.64
2022-08-12T22:16:53.173Z,31.78
2022-08-12T22:19:21.504Z,31.88
2022-08-12T22:21:54.967Z,32.00
2022-08-12T22:24:25.916Z,31.94
2022-08-12T22:26:55.223Z,31.90
2022-08-12T22:29:40.727Z,32.31
2022-08-12T22:32:08.230Z,32.06
2022-08-12T22:34:39.303Z,32.02
2022-08-12T22:37:11.420Z,32.29
2022-08-12T22:39:46.395Z,32.10
2022-08-12T22:42:34.179Z,32.10
2022-08-12T22:45:23.071Z,32.23
2022-08-12T22:47:54.685Z,32.08
2022-08-12T22:50:27.436Z,32.42
2022-08-12T22:53:17.119Z,32.38
2022-08-12T22:55:59.908Z,32.55
2022-08-12T22:58:33.576Z,32.46
2022-08-12T23:01:01.804Z,32.51
2022-08-12T23:03:48.860Z,32.69
2022-08-12T23:06:25.328Z,32.64
2022-08-12T23:08:54.923Z,32.70
2022-08-12T23:11:23.231Z,32.92
2022-08-12T23:13:55.403Z,32.85
2022-08-12T23:16:30.971Z,32.63
2022-08-12T23:19:09.506Z,32.64
2022-08-12T23:22:03.736Z,32.99
2022-08-12T23:24:30.956Z,32.83
2022-08-12T23:27:18.119Z,33.03
2022-08-12T23:30:17.823Z,33.23
2022-08-12T23:32:36.780Z,33.20
2022-08-12T23:35:06.579Z,33.23
2022-08-12T23:37:47.252Z,33.27
2022-08-12T23:40:22.152Z,33.31
2022-08-12T23:42:49.356Z,33.42
2022-08-12T23:45:20.680Z,33.06
2022-08-12T23:48:00.143Z,33.15
2022-08-12T23:50:34.007Z,33.02
2022-08-12T23:53:07.834Z,33.05
2022-08-12T23:55:45.475Z,33.18
2022-08-12T23:58:17.773Z,33.36
